Time;durP1;ratioP1;P1;durP2;ratioP2;P2;SDS_P1;SDS_P2;PMS_P1;PMS_P2;Temp;Humidity;BMP_temperature;BMP_pressure;BME280_temperature;BME280_humidity;BME280_pressure;Samples;Min_cycle;Max_cycle;Signal;HPM_P1;HPM_P2
2022/08/28 00:01:36;;;;;;;6.50;5.70;;;24.10;58.60;;;;;;5075960;28;20202;-44
2022/08/28 00:04:02;;;;;;;8.90;6.43;;;24.10;58.70;;;;;;5093939;28;20185;-42
2022/08/28 00:06:28;;;;;;;8.20;6.77;;;24.10;58.60;;;;;;5093683;28;20406;-43
2022/08/28 00:08:55;;;;;;;8.37;6.33;;;24.10;58.60;;;;;;5093966;28;20434;-43
2022/08/28 00:11:22;;;;;;;8.07;7.20;;;24.10;58.60;;;;;;5093957;28;20782;-44
2022/08/28 00:13:48;;;;;;;8.23;7.10;;;24.10;58.60;;;;;;5093938;28;20849;-42
2022/08/28 00:16:14;;;;;;;8.00;7.10;;;24.10;58.80;;;;;;5093489;28;20402;-43
2022/08/28 00:18:40;;;;;;;11.23;7.60;;;24.10;58.90;;;;;;5093543;28;20438;-42
2022/08/28 00:21:06;;;;;;;8.50;7.60;;;24.00;58.80;;;;;;5093620;28;20402;-43
2022/08/28 00:23:32;;;;;;;9.23;8.33;;;24.00;58.90;;;;;;5093691;28;20406;-43
2022/08/28 00:25:59;;;;;;;9.07;8.17;;;24.00;58.90;;;;;;5093424;28;20452;-43
2022/08/28 00:28:25;;;;;;;10.47;8.70;;;24.00;59.00;;;;;;5093423;28;20176;-45
2022/08/28 00:30:53;;;;;;;12.00;9.47;;;24.00;59.00;;;;;;5093548;28;20409;-43
2022/08/28 00:33:29;;;;;;;10.77;9.53;;;24.00;58.90;;;;;;5093315;28;20405;-42
2022/08/28 00:35:56;;;;;;;11.73;10.30;;;24.00;59.00;;;;;;5093073;28;20484;-44
2022/08/28 00:38:25;;;;;;;11.87;9.57;;;24.00;59.10;;;;;;5075220;28;20501;-42
2022/08/28 00:40:53;;;;;;;10.80;9.30;;;24.00;59.10;;;;;;5093183;28;20465;-42
2022/08/28 00:43:37;;;;;;;10.20;8.37;;;24.00;59.20;;;;;;5093197;28;20441;-45
2022/08/28 00:46:09;;;;;;;9.37;8.47;;;24.00;59.10;;;;;;5093174;28;20401;-43
2022/08/28 00:48:36;;;;;;;10.43;8.27;;;23.90;59.20;;;;;;5093056;28;20923;-43
2022/08/28 00:53:48;;;;;;;10.73;8.87;;;23.90;59.10;;;;;;5093217;28;20852;-44
2022/08/28 00:56:17;;;;;;;8.90;8.00;;;23.90;59.10;;;;;;5092719;28;20398;-43
2022/08/28 00:58:45;;;;;;;11.73;8.50;;;23.90;59.50;;;;;;5092825;28;20406;-43
2022/08/28 01:01:12;;;;;;;13.50;8.07;;;23.80;58.90;;;;;;5092912;28;20919;-42
2022/08/28 01:03:38;;;;;;;9.43;8.37;;;23.80;59.00;;;;;;5092866;28;20462;-44
2022/08/28 01:06:06;;;;;;;11.13;9.67;;;23.80;59.10;;;;;;5092626;28;20398;-45
2022/08/28 01:08:34;;;;;;;10.70;8.80;;;23.80;59.10;;;;;;5092660;28;20408;-44
2022/08/28 01:11:03;;;;;;;11.87;8.70;;;23.90;59.20;;;;;;5092691;28;21105;-43
2022/08/28 01:13:31;;;;;;;9.60;7.80;;;23.90;59.10;;;;;;5092901;28;20404;-43
2022/08/28 01:15:58;;;;;;;13.50;9.90;;;23.80;58.90;;;;;;5092657;28;20418;-42
2022/08/28 01:18:26;;;;;;;15.10;11.40;;;23.80;58.90;;;;;;5092454;28;20410;-44
2022/08/28 01:21:22;;;;;;;12.10;9.57;;;23.80;58.80;;;;;;5092747;28;20437;-44
2022/08/28 01:24:00;;;;;;;10.93;9.57;;;23.80;58.80;;;;;;5092626;28;20392;-44
2022/08/28 01:26:27;;;;;;;13.17;10.23;;;23.70;58.90;;;;;;5092556;28;20397;-44
2022/08/28 01:28:54;;;;;;;10.80;9.70;;;23.70;58.80;;;;;;5092424;28;20517;-43
2022/08/28 01:31:20;;;;;;;12.53;10.00;;;23.60;59.00;;;;;;5092406;28;20492;-44
2022/08/28 01:33:47;;;;;;;13.17;9.43;;;23.60;58.70;;;;;;5092290;28;20518;-45
2022/08/28 01:36:14;;;;;;;11.40;9.93;;;23.60;58.60;;;;;;5092042;28;20463;-43
2022/08/28 01:38:42;;;;;;;15.13;9.70;;;23.60;58.50;;;;;;5092086;28;20412;-45
2022/08/28 01:41:10;;;;;;;10.33;8.40;;;23.60;58.40;;;;;;5092342;28;20406;-44
2022/08/28 01:43:39;;;;;;;14.60;10.90;;;23.50;58.30;;;;;;5092358;28;20893;-45
2022/08/28 01:46:05;;;;;;;10.37;9.23;;;23.50;58.20;;;;;;5091954;28;20913;-45
2022/08/28 01:48:35;;;;;;;13.90;9.43;;;23.40;58.20;;;;;;5092172;28;20434;-44
2022/08/28 01:51:02;;;;;;;12.13;8.83;;;23.40;58.30;;;;;;5092282;28;20407;-43
2022/08/28 01:53:29;;;;;;;10.90;9.73;;;23.40;58.40;;;;;;5092048;28;20777;-42
2022/08/28 01:55:56;;;;;;;10.63;9.53;;;23.40;58.30;;;;;;5091941;28;20409;-45
2022/08/28 01:58:23;;;;;;;14.50;11.80;;;23.40;58.40;;;;;;5092179;28;20405;-43
2022/08/28 02:00:51;;;;;;;14.60;10.37;;;23.40;58.30;;;;;;5092074;28;21360;-44
2022/08/28 02:03:17;;;;;;;13.83;10.40;;;23.40;58.40;;;;;;5092011;28;20422;-44
2022/08/28 02:05:42;;;;;;;14.57;10.67;;;23.40;58.20;;;;;;5091864;28;20413;-43
2022/08/28 02:08:08;;;;;;;18.07;12.67;;;23.40;58.30;;;;;;5092139;28;20176;-43
2022/08/28 02:10:36;;;;;;;15.87;11.33;;;23.40;58.40;;;;;;5093477;28;20417;-44
2022/08/28 02:13:03;;;;;;;14.67;10.13;;;23.30;58.20;;;;;;5096201;28;20164;-43
2022/08/28 02:15:31;;;;;;;14.13;12.10;;;23.70;58.70;;;;;;5095931;28;20457;-43
2022/08/28 02:17:56;;;;;;;16.60;13.70;;;23.30;58.70;;;;;;5095997;28;20398;-42
2022/08/28 02:20:23;;;;;;;16.60;12.93;;;23.30;58.70;;;;;;5095906;28;20418;-45
2022/08/28 02:22:49;;;;;;;18.73;13.30;;;23.40;58.70;;;;;;5096024;28;20889;-45
2022/08/28 02:25:15;;;;;;;14.37;12.77;;;23.40;58.60;;;;;;5095906;28;20409;-43
2022/08/28 02:27:43;;;;;;;24.63;14.00;;;23.40;58.70;;;;;;5095678;28;20478;-44
2022/08/28 02:30:11;;;;;;;16.50;14.20;;;23.40;58.60;;;;;;5095982;28;20513;-43
2022/08/28 02:32:37;;;;;;;17.60;13.13;;;23.40;58.60;;;;;;5096045;28;20414;-42
2022/08/28 02:35:05;;;;;;;19.90;13.30;;;23.40;58.60;;;;;;5095832;28;20461;-44
2022/08/28 02:37:31;;;;;;;17.90;13.33;;;23.40;58.60;;;;;;5095444;28;20413;-44
2022/08/28 02:39:57;;;;;;;18.07;14.87;;;23.40;58.60;;;;;;5095508;28;20441;-43
2022/08/28 02:42:23;;;;;;;15.60;13.50;;;23.40;58.80;;;;;;5095541;28;20229;-44
2022/08/28 02:44:49;;;;;;;21.97;15.47;;;23.40;58.60;;;;;;5095556;28;20414;-44
2022/08/28 02:47:15;;;;;;;17.73;14.40;;;23.40;58.50;;;;;;5095286;28;20467;-44
2022/08/28 02:49:41;;;;;;;20.60;14.47;;;23.40;58.50;;;;;;5095301;28;20432;-44
2022/08/28 02:52:07;;;;;;;17.83;14.30;;;23.40;58.60;;;;;;5095409;28;20456;-42
2022/08/28 02:54:34;;;;;;;21.90;16.27;;;23.40;58.60;;;;;;5095168;28;20494;-42
2022/08/28 02:57:00;;;;;;;20.50;15.97;;;23.40;58.80;;;;;;5095017;28;20907;-44
2022/08/28 02:59:26;;;;;;;20.73;15.57;;;23.40;58.60;;;;;;5095205;28;20432;-42
2022/08/28 03:01:52;;;;;;;22.33;15.13;;;23.40;58.60;;;;;;5095331;28;20640;-44
2022/08/28 03:04:18;;;;;;;21.10;17.23;;;23.40;58.60;;;;;;5095087;28;20431;-42
2022/08/28 03:06:43;;;;;;;19.93;15.27;;;23.40;58.60;;;;;;5095196;28;20410;-43
2022/08/28 03:09:09;;;;;;;26.07;14.50;;;23.40;58.60;;;;;;5095027;28;20219;-44
2022/08/28 03:11:36;;;;;;;19.73;17.20;;;23.40;58.70;;;;;;5094991;28;20249;-43
2022/08/28 03:14:03;;;;;;;21.03;15.73;;;23.40;58.60;;;;;;5094951;28;20485;-43
2022/08/28 03:16:31;;;;;;;23.20;15.10;;;23.40;58.70;;;;;;5094716;28;20413;-43
2022/08/28 03:18:57;;;;;;;19.50;15.03;;;23.40;58.70;;;;;;5094704;28;20956;-43
2022/08/28 03:21:23;;;;;;;21.30;15.00;;;23.40;58.70;;;;;;5094236;28;20410;-43
2022/08/28 03:23:48;;;;;;;21.77;14.03;;;23.40;58.60;;;;;;5094177;28;20488;-45
2022/08/28 03:26:17;;;;;;;18.70;14.30;;;23.40;58.60;;;;;;5094780;28;20179;-43
2022/08/28 03:28:49;;;;;;;24.70;16.43;;;23.30;58.60;;;;;;5094593;28;20172;-43
2022/08/28 03:31:18;;;;;;;19.20;15.93;;;23.40;58.60;;;;;;5094616;28;20386;-43
2022/08/28 03:33:45;;;;;;;24.83;17.57;;;23.40;58.60;;;;;;5094717;28;20453;-43
2022/08/28 03:36:13;;;;;;;20.70;15.23;;;23.30;58.60;;;;;;5094248;28;20897;-44
2022/08/28 03:38:40;;;;;;;20.53;14.53;;;23.30;58.60;;;;;;5094473;28;20766;-44
2022/08/28 03:41:11;;;;;;;17.10;15.30;;;23.30;58.60;;;;;;5094416;28;20929;-43
2022/08/28 03:43:37;;;;;;;19.50;13.83;;;23.30;58.50;;;;;;5094630;28;20817;-45
2022/08/28 03:46:05;;;;;;;18.20;14.03;;;23.20;58.50;;;;;;5094174;28;20471;-45
2022/08/28 03:48:36;;;;;;;17.70;12.57;;;23.20;58.40;;;;;;5094433;28;20175;-44
2022/08/28 03:51:07;;;;;;;16.70;13.83;;;23.20;58.50;;;;;;5094301;28;20390;-44
2022/08/28 03:53:33;;;;;;;14.70;10.77;;;23.20;58.50;;;;;;5094226;28;20473;-45
2022/08/28 03:55:59;;;;;;;12.23;10.60;;;23.10;58.40;;;;;;5093928;28;20402;-45
2022/08/28 03:58:26;;;;;;;13.50;11.00;;;23.10;58.20;;;;;;5094106;28;20791;-45
2022/08/28 04:00:52;;;;;;;14.03;11.23;;;23.00;58.00;;;;;;5094055;28;20910;-45
2022/08/28 04:03:18;;;;;;;14.37;9.90;;;23.00;58.20;;;;;;5094210;28;20410;-45
2022/08/28 04:05:45;;;;;;;14.80;11.60;;;23.00;58.10;;;;;;5093658;28;20906;-44
2022/08/28 04:08:16;;;;;;;10.50;9.30;;;23.00;58.10;;;;;;5093920;28;20933;-45
2022/08/28 04:10:43;;;;;;;9.80;7.93;;;22.90;57.90;;;;;;5094008;28;20778;-44
2022/08/28 04:13:10;;;;;;;13.93;9.60;;;22.90;58.10;;;;;;5093837;28;20402;-43
2022/08/28 04:15:35;;;;;;;13.50;10.20;;;22.90;58.10;;;;;;5093485;28;20453;-44
2022/08/28 04:18:01;;;;;;;15.53;10.83;;;22.90;58.20;;;;;;5093678;28;20467;-44
2022/08/28 04:20:28;;;;;;;14.83;8.97;;;22.90;58.20;;;;;;5093612;28;20551;-43
2022/08/28 04:22:53;;;;;;;12.77;10.40;;;22.90;58.20;;;;;;5093903;28;20184;-44
2022/08/28 04:25:20;;;;;;;10.80;9.67;;;23.00;58.00;;;;;;5093583;28;20406;-43
2022/08/28 04:27:46;;;;;;;11.87;10.10;;;22.90;58.00;;;;;;5093341;28;20198;-44
2022/08/28 04:30:12;;;;;;;13.33;10.33;;;22.90;58.20;;;;;;5093430;28;20430;-44
2022/08/28 04:32:38;;;;;;;15.93;12.30;;;22.90;58.00;;;;;;5093270;28;20913;-44
2022/08/28 04:35:05;;;;;;;17.23;10.30;;;22.80;58.10;;;;;;5093311;28;20491;-45
2022/08/28 04:37:31;;;;;;;14.90;10.70;;;22.90;58.30;;;;;;5093161;28;20430;-42
2022/08/28 04:39:57;;;;;;;15.00;11.03;;;22.90;58.30;;;;;;5092942;28;20492;-44
2022/08/28 04:42:23;;;;;;;16.50;11.03;;;22.90;58.30;;;;;;5093287;28;20194;-42
2022/08/28 04:44:49;;;;;;;14.10;10.07;;;22.80;58.20;;;;;;5093116;28;20897;-43
2022/08/28 04:47:15;;;;;;;15.97;11.27;;;22.80;58.30;;;;;;5092889;28;20247;-45
2022/08/28 04:49:41;;;;;;;14.23;10.20;;;22.70;58.40;;;;;;5093139;28;20482;-45
2022/08/28 04:52:07;;;;;;;15.83;11.23;;;22.70;58.50;;;;;;5093293;28;20283;-44
2022/08/28 04:54:33;;;;;;;11.97;10.43;;;22.80;58.60;;;;;;5093003;28;20307;-44
2022/08/28 04:57:00;;;;;;;17.87;11.73;;;22.80;58.60;;;;;;5092778;28;20398;-43
2022/08/28 04:59:26;;;;;;;18.00;11.20;;;22.80;58.60;;;;;;5092876;28;20432;-44
2022/08/28 05:01:53;;;;;;;15.77;10.47;;;22.70;58.30;;;;;;5092829;28;20409;-42
2022/08/28 05:04:19;;;;;;;11.93;8.90;;;22.80;58.30;;;;;;5093074;28;20409;-44
2022/08/28 05:06:45;;;;;;;12.53;8.70;;;22.80;58.40;;;;;;5092657;28;20402;-44
2022/08/28 05:09:13;;;;;;;12.93;8.93;;;22.70;57.90;;;;;;5092713;28;20458;-44
2022/08/28 05:11:39;;;;;;;14.73;9.90;;;22.70;58.20;;;;;;5092656;28;20433;-44
2022/08/28 05:14:08;;;;;;;13.33;7.40;;;22.70;58.20;;;;;;5092700;28;20957;-45
2022/08/28 05:16:46;;;;;;;7.70;6.97;;;22.70;58.60;;;;;;5092389;28;20406;-43
2022/08/28 05:19:13;;;;;;;12.47;7.57;;;22.70;57.70;;;;;;5092632;28;20436;-44
2022/08/28 05:21:39;;;;;;;13.37;7.43;;;22.60;57.60;;;;;;5092579;28;20489;-44
2022/08/28 05:24:07;;;;;;;8.67;7.10;;;22.60;58.50;;;;;;5092833;28;20481;-44
2022/08/28 05:26:34;;;;;;;13.00;7.10;;;22.60;57.80;;;;;;5092393;28;20168;-44
2022/08/28 05:29:00;;;;;;;12.40;5.83;;;22.60;57.30;;;;;;5092340;28;20434;-43
2022/08/28 05:31:27;;;;;;;15.07;7.40;;;22.50;57.60;;;;;;5092634;28;20397;-44
2022/08/28 05:33:54;;;;;;;10.03;6.73;;;22.50;57.70;;;;;;5092548;28;20207;-43
2022/08/28 05:36:22;;;;;;;12.80;7.00;;;22.50;57.60;;;;;;5092391;28;20394;-44
2022/08/28 05:38:49;;;;;;;8.07;6.13;;;22.40;57.30;;;;;;5092414;28;20467;-44
2022/08/28 05:41:20;;;;;;;14.00;5.77;;;22.40;57.20;;;;;;5092397;28;20459;-43
2022/08/28 05:43:46;;;;;;;9.70;5.63;;;22.40;57.10;;;;;;5092258;28;20398;-43
2022/08/28 05:46:12;;;;;;;14.70;7.07;;;22.30;57.00;;;;;;5091326;28;20402;-44
2022/08/28 05:48:38;;;;;;;9.90;6.93;;;22.30;57.10;;;;;;5092274;28;20460;-43
2022/08/28 05:51:08;;;;;;;24.50;6.83;;;22.30;57.20;;;;;;5092390;28;20228;-44
2022/08/28 05:53:36;;;;;;;7.70;5.23;;;22.30;57.50;;;;;;5092126;28;20414;-43
2022/08/28 05:56:05;;;;;;;16.07;5.80;;;22.30;57.20;;;;;;5092008;28;21054;-43
2022/08/28 05:58:32;;;;;;;8.93;5.37;;;22.30;57.20;;;;;;5092091;28;20408;-43
2022/08/28 06:01:08;;;;;;;10.80;5.73;;;22.30;57.10;;;;;;5092240;28;20481;-43
2022/08/28 06:03:38;;;;;;;12.20;5.40;;;22.30;57.00;;;;;;5092134;28;20409;-43
2022/08/28 06:06:05;;;;;;;10.27;5.73;;;22.20;57.10;;;;;;5091885;28;20410;-43
2022/08/28 06:08:31;;;;;;;15.90;4.77;;;22.20;57.60;;;;;;5092246;28;20757;-43
2022/08/28 06:10:58;;;;;;;6.57;4.90;;;22.10;57.00;;;;;;5092105;28;20405;-43
2022/08/28 06:13:24;;;;;;;8.43;5.30;;;22.20;57.20;;;;;;5091898;28;20904;-44
2022/08/28 06:15:50;;;;;;;11.50;6.10;;;22.20;57.10;;;;;;5091993;28;20484;-44
2022/08/28 06:18:16;;;;;;;7.20;5.27;;;22.20;57.20;;;;;;5092210;28;20398;-43
2022/08/28 06:20:44;;;;;;;16.80;5.47;;;22.20;57.10;;;;;;5091863;28;20737;-44
2022/08/28 06:23:12;;;;;;;13.57;5.63;;;22.20;57.10;;;;;;5091785;28;20445;-43
2022/08/28 06:25:40;;;;;;;9.67;5.60;;;22.30;57.20;;;;;;5091890;28;20428;-43
2022/08/28 06:28:06;;;;;;;7.63;5.10;;;22.30;57.00;;;;;;5091819;28;20410;-43
2022/08/28 06:30:35;;;;;;;12.17;5.90;;;22.20;56.30;;;;;;5091814;28;20428;-43
2022/08/28 06:33:02;;;;;;;10.37;5.90;;;22.30;56.70;;;;;;5091806;28;20458;-44
2022/08/28 06:35:30;;;;;;;7.70;4.90;;;22.30;56.90;;;;;;5091652;28;20494;-44
2022/08/28 06:37:56;;;;;;;13.10;5.43;;;22.30;56.70;;;;;;5091655;28;20398;-44
2022/08/28 06:40:22;;;;;;;8.80;4.57;;;22.30;56.90;;;;;;5091519;28;20449;-44
2022/08/28 06:42:48;;;;;;;12.10;5.30;;;22.30;56.90;;;;;;5073761;28;20443;-43
2022/08/28 06:45:14;;;;;;;11.20;5.73;;;22.40;56.80;;;;;;5091489;28;20176;-44
2022/08/28 06:47:39;;;;;;;10.73;4.90;;;22.40;56.90;;;;;;5091719;28;20410;-44
2022/08/28 06:50:06;;;;;;;14.13;4.90;;;22.40;56.50;;;;;;5091469;28;20195;-43
2022/08/28 06:52:31;;;;;;;8.20;5.53;;;22.50;56.50;;;;;;5091546;28;20168;-45
2022/08/28 06:54:57;;;;;;;7.07;4.90;;;22.50;56.50;;;;;;5091678;28;20794;-43
2022/08/28 06:57:24;;;;;;;11.33;4.97;;;22.50;56.40;;;;;;5093767;28;20218;-44
2022/08/28 06:59:57;;;;;;;7.60;5.07;;;22.40;55.40;;;;;;5095117;28;20188;-44
2022/08/28 07:02:23;;;;;;;13.23;4.27;;;22.40;55.90;;;;;;5095523;28;20744;-44
2022/08/28 07:04:52;;;;;;;12.27;4.57;;;22.40;55.90;;;;;;5095195;28;20897;-44
2022/08/28 07:07:19;;;;;;;8.80;4.30;;;22.30;55.10;;;;;;5094928;28;20203;-44
2022/08/28 07:09:46;;;;;;;8.43;4.70;;;22.30;55.80;;;;;;5095194;28;20434;-44
2022/08/28 07:12:15;;;;;;;9.27;4.70;;;22.40;55.80;;;;;;5094964;28;20445;-44
2022/08/28 07:14:42;;;;;;;10.53;3.87;;;22.40;55.40;;;;;;5094935;28;20450;-44
2022/08/28 07:17:08;;;;;;;8.40;4.30;;;22.30;54.70;;;;;;5094611;28;20406;-44
2022/08/28 07:19:34;;;;;;;7.60;4.10;;;22.30;54.60;;;;;;5094918;28;20430;-44
2022/08/28 07:22:00;;;;;;;7.03;3.43;;;22.30;55.20;;;;;;5094909;28;20394;-43
2022/08/28 07:24:28;;;;;;;12.93;4.73;;;22.30;54.20;;;;;;5094751;28;20236;-44
2022/08/28 07:26:54;;;;;;;5.70;4.60;;;22.30;54.60;;;;;;5094430;28;20414;-44
2022/08/28 07:29:20;;;;;;;10.00;3.70;;;22.30;54.20;;;;;;5094642;28;20429;-44
2022/08/28 07:31:52;;;;;;;13.53;4.30;;;22.30;53.60;;;;;;5094859;28;20500;-44
2022/08/28 07:34:20;;;;;;;10.23;4.00;;;22.30;54.10;;;;;;5094421;28;20844;-44
2022/08/28 07:36:46;;;;;;;7.03;4.33;;;22.30;54.50;;;;;;5094590;28;20402;-44
2022/08/28 07:39:14;;;;;;;9.50;4.40;;;22.30;54.30;;;;;;5094254;28;20480;-45
2022/08/28 07:41:41;;;;;;;8.33;4.10;;;22.40;54.50;;;;;;5094591;28;20409;-44
2022/08/28 07:46:59;;;;;;;13.00;5.00;;;22.40;53.20;;;;;;5094410;28;20922;-44
2022/08/28 07:49:26;;;;;;;10.10;4.43;;;22.40;53.40;;;;;;5094216;28;20509;-44
2022/08/28 07:51:52;;;;;;;9.10;4.50;;;22.40;54.00;;;;;;5094227;28;20494;-44
2022/08/28 07:54:19;;;;;;;9.17;4.27;;;22.50;53.60;;;;;;5094360;28;20587;-44
2022/08/28 07:56:45;;;;;;;10.33;3.87;;;22.50;53.20;;;;;;5094056;28;20406;-44
2022/08/28 07:59:12;;;;;;;5.80;3.57;;;22.50;52.10;;;;;;5093943;28;20505;-44
2022/08/28 08:01:41;;;;;;;5.63;3.57;;;22.50;51.80;;;;;;5094086;28;21081;-44
2022/08/28 08:04:11;;;;;;;10.87;3.60;;;22.50;52.10;;;;;;5093968;28;20889;-44
2022/08/28 08:06:39;;;;;;;13.73;3.93;;;22.50;52.80;;;;;;5093749;28;20413;-43
2022/08/28 08:09:07;;;;;;;10.17;3.73;;;22.50;53.20;;;;;;5093193;28;20414;-44
2022/08/28 08:11:33;;;;;;;16.60;3.97;;;22.50;53.00;;;;;;5093713;28;20406;-44
2022/08/28 08:14:03;;;;;;;7.10;3.60;;;22.60;53.50;;;;;;5093802;28;20484;-43
2022/08/28 08:16:32;;;;;;;9.00;3.50;;;22.60;53.50;;;;;;5093684;28;20765;-44
2022/08/28 08:18:58;;;;;;;12.23;3.77;;;22.60;52.70;;;;;;5093731;28;20454;-44
2022/08/28 08:21:23;;;;;;;15.57;3.93;;;22.60;52.50;;;;;;5093577;28;20453;-44
2022/08/28 08:23:49;;;;;;;10.40;3.90;;;22.70;53.10;;;;;;5093583;28;20179;-44
2022/08/28 08:26:18;;;;;;;7.60;3.70;;;22.70;53.00;;;;;;5093477;28;20172;-44
2022/08/28 08:28:44;;;;;;;18.17;5.03;;;22.80;53.20;;;;;;5093593;28;20171;-44
2022/08/28 08:31:18;;;;;;;5.60;3.17;;;22.80;52.40;;;;;;5093691;28;20409;-43
2022/08/28 08:33:46;;;;;;;9.30;4.03;;;22.90;52.60;;;;;;5093507;28;20488;-44
2022/08/28 08:36:14;;;;;;;12.40;3.77;;;22.90;52.60;;;;;;5093095;28;20404;-44
2022/08/28 08:38:40;;;;;;;12.67;4.20;;;22.90;52.00;;;;;;5092982;28;20390;-43
2022/08/28 08:41:27;;;;;;;8.23;3.93;;;23.00;52.40;;;;;;5093485;28;20382;-44
2022/08/28 08:44:08;;;;;;;6.83;4.20;;;23.10;52.70;;;;;;5093262;28;20889;-45
2022/08/28 08:46:50;;;;;;;5.73;3.10;;;23.10;52.20;;;;;;5093234;28;20386;-44
2022/08/28 08:49:19;;;;;;;8.33;4.00;;;23.20;50.80;;;;;;5093047;28;20504;-44
2022/08/28 08:52:12;;;;;;;8.83;3.73;;;23.10;50.50;;;;;;5093079;28;20428;-44
2022/08/28 08:54:42;;;;;;;13.80;3.07;;;23.20;50.80;;;;;;5092937;28;20476;-45
2022/08/28 08:57:13;;;;;;;10.43;3.80;;;23.30;50.90;;;;;;5092689;28;20448;-44
2022/08/28 08:59:40;;;;;;;13.97;4.87;;;23.30;50.70;;;;;;5092866;28;20471;-43
2022/08/28 09:02:20;;;;;;;11.03;5.00;;;23.40;51.40;;;;;;5093158;28;20406;-45
2022/08/28 09:04:55;;;;;;;12.10;3.67;;;23.40;50.70;;;;;;5093192;28;20398;-43
2022/08/28 09:07:33;;;;;;;6.60;4.10;;;23.50;51.50;;;;;;5092646;28;20405;-45
2022/08/28 09:09:58;;;;;;;10.07;3.87;;;23.60;51.00;;;;;;5092592;28;20422;-44
2022/08/28 09:12:28;;;;;;;6.80;4.33;;;23.70;50.90;;;;;;5092651;28;20406;-45
2022/08/28 09:15:16;;;;;;;12.13;4.67;;;23.80;51.50;;;;;;5092536;28;20282;-44
2022/08/28 09:18:05;;;;;;;11.67;3.80;;;24.10;51.30;;;;;;5092511;28;20402;-45
2022/08/28 09:20:31;;;;;;;11.77;4.40;;;24.20;49.90;;;;;;5073848;28;20430;-43
2022/08/28 09:22:57;;;;;;;13.60;4.80;;;24.20;49.70;;;;;;5092517;28;20770;-43
2022/08/28 09:25:49;;;;;;;7.10;4.00;;;24.30;50.30;;;;;;5092463;28;20172;-43
2022/08/28 09:28:25;;;;;;;16.13;7.40;;;24.40;50.20;;;;;;5092411;28;20183;-45
2022/08/28 09:31:01;;;;;;;11.07;5.07;;;24.50;50.40;;;;;;5092415;28;20497;-44
2022/08/28 09:33:41;;;;;;;6.23;5.43;;;24.60;49.90;;;;;;5092708;28;20468;-44
2022/08/28 09:36:36;;;;;;;16.73;6.13;;;24.70;50.30;;;;;;5092053;28;20390;-45
2022/08/28 09:39:16;;;;;;;11.70;4.80;;;24.70;48.40;;;;;;5071263;28;20454;-45
2022/08/28 09:44:58;;;;;;;12.77;5.33;;;24.80;49.10;;;;;;5092566;28;20747;-45
2022/08/28 09:47:47;;;;;;;8.90;5.23;;;24.80;48.60;;;;;;5091911;28;21107;-44
2022/08/28 09:50:26;;;;;;;9.07;5.00;;;24.80;49.00;;;;;;5092291;28;20426;-44
2022/08/28 09:52:55;;;;;;;6.80;5.73;;;24.90;48.60;;;;;;5092237;28;20383;-47
2022/08/28 09:55:41;;;;;;;6.90;4.73;;;24.90;47.60;;;;;;5092036;28;20541;-45
2022/08/28 09:58:08;;;;;;;8.00;5.83;;;25.00;47.90;;;;;;5091572;28;20828;-44
2022/08/28 10:00:38;;;;;;;11.50;5.50;;;25.00;48.80;;;;;;5092012;28;20996;-44
2022/08/28 10:03:16;;;;;;;9.30;4.77;;;25.10;47.70;;;;;;5092048;28;20984;-44
2022/08/28 10:06:01;;;;;;;6.20;4.30;;;25.10;47.90;;;;;;5091877;28;20497;-46
2022/08/28 10:08:27;;;;;;;7.17;4.73;;;25.20;48.60;;;;;;5092177;28;20484;-44
2022/08/28 10:10:57;;;;;;;8.60;4.60;;;25.20;47.30;;;;;;5092082;28;20931;-44
2022/08/28 10:13:31;;;;;;;6.40;4.80;;;25.40;47.50;;;;;;5092125;28;20184;-45
2022/08/28 10:16:12;;;;;;;11.10;4.87;;;25.40;47.70;;;;;;5091981;28;20394;-46
2022/08/28 10:19:02;;;;;;;10.97;4.37;;;25.50;45.90;;;;;;5091808;28;20405;-44
2022/08/28 10:21:59;;;;;;;13.73;4.90;;;25.40;44.40;;;;;;5091874;28;20424;-44
2022/08/28 10:24:34;;;;;;;5.40;4.20;;;25.40;44.50;;;;;;5090668;28;20426;-44
2022/08/28 10:27:30;;;;;;;12.20;5.03;;;25.30;46.10;;;;;;5091558;28;20393;-45
2022/08/28 10:30:12;;;;;;;7.07;4.30;;;25.50;47.10;;;;;;5091919;28;20441;-44
2022/08/28 10:33:15;;;;;;;9.60;4.20;;;25.70;46.90;;;;;;5094690;28;20427;-44
2022/08/28 10:36:23;;;;;;;7.70;4.17;;;25.80;46.50;;;;;;5095376;28;20441;-45
2022/08/28 10:39:09;;;;;;;13.70;4.73;;;25.80;46.90;;;;;;4993441;28;20445;-44
2022/08/28 10:41:48;;;;;;;11.77;5.10;;;25.80;46.50;;;;;;4964375;28;20889;-44
2022/08/28 10:44:39;;;;;;;5.57;3.40;;;25.80;46.60;;;;;;4993628;28;20421;-44
2022/08/28 10:47:08;;;;;;;8.23;4.40;;;25.90;46.50;;;;;;4993230;28;21226;-44
2022/08/28 10:49:41;;;;;;;8.40;4.57;;;25.90;47.20;;;;;;4993686;28;20489;-44
2022/08/28 10:52:11;;;;;;;14.57;5.50;;;26.00;47.60;;;;;;4993873;28;20430;-44
2022/08/28 10:55:05;;;;;;;11.33;5.13;;;26.10;46.90;;;;;;4993776;28;20477;-44
2022/08/28 10:57:43;;;;;;;7.20;4.10;;;26.00;46.90;;;;;;4985864;28;20418;-44
2022/08/28 11:00:21;;;;;;;10.03;4.00;;;26.10;46.50;;;;;;4993392;28;20441;-44
2022/08/28 11:03:12;;;;;;;7.70;5.37;;;26.10;45.90;;;;;;4993639;28;20406;-44
2022/08/28 11:06:10;;;;;;;5.73;2.97;;;26.00;39.70;;;;;;4986824;28;20429;-44
2022/08/28 11:08:38;;;;;;;8.10;5.00;;;26.00;42.60;;;;;;5005951;28;20493;-43
2022/08/28 11:11:09;;;;;;;12.80;4.10;;;26.00;42.60;;;;;;5095324;28;20395;-45
2022/08/28 11:13:53;;;;;;;9.37;4.13;;;26.10;42.80;;;;;;5095636;28;20746;-44
2022/08/28 11:16:22;;;;;;;10.57;5.30;;;26.10;42.60;;;;;;5095292;28;20394;-44
2022/08/28 11:19:07;;;;;;;12.47;5.20;;;26.30;43.90;;;;;;5095326;28;20432;-44
2022/08/28 11:21:52;;;;;;;8.57;4.40;;;26.40;43.70;;;;;;5095508;28;20479;-45
2022/08/28 11:24:43;;;;;;;10.63;4.57;;;26.50;43.70;;;;;;5095223;28;20443;-44
2022/08/28 11:28:03;;;;;;;5.97;4.50;;;26.60;43.60;;;;;;5043128;28;20421;-44
2022/08/28 11:30:32;;;;;;;8.77;4.60;;;26.90;43.50;;;;;;4993013;28;20427;-45
2022/08/28 11:33:01;;;;;;;9.40;4.10;;;26.90;42.70;;;;;;5089140;28;20441;-45
2022/08/28 11:35:43;;;;;;;7.80;4.50;;;27.00;43.80;;;;;;5094378;28;20475;-44
2022/08/28 11:38:10;;;;;;;8.30;4.57;;;27.10;43.70;;;;;;5094631;28;20493;-45
2022/08/28 11:40:51;;;;;;;5.10;4.60;;;27.20;43.80;;;;;;5094214;28;20503;-44
2022/08/28 11:43:17;;;;;;;13.83;7.30;;;27.30;43.30;;;;;;5093544;28;20423;-43
2022/08/28 11:45:46;;;;;;;12.33;4.97;;;27.20;42.70;;;;;;5094128;28;20984;-43
2022/08/28 11:48:34;;;;;;;6.60;4.00;;;27.10;43.20;;;;;;5094180;28;20807;-44
2022/08/28 11:51:16;;;;;;;8.73;5.53;;;27.10;42.00;;;;;;5081923;22;20854;-43
2022/08/28 11:54:15;;;;;;;7.53;4.50;;;27.00;41.80;;;;;;5067186;28;20410;-43
2022/08/28 11:57:06;;;;;;;6.73;3.93;;;27.00;42.70;;;;;;5073823;28;20423;-44
2022/08/28 11:59:45;;;;;;;12.83;4.50;;;27.10;42.50;;;;;;5072774;28;20387;-44
2022/08/28 12:02:39;;;;;;;9.57;3.70;;;27.20;42.60;;;;;;5053796;28;20400;-45
2022/08/28 12:05:05;;;;;;;10.33;4.50;;;27.30;41.90;;;;;;5053997;28;20494;-44
2022/08/28 12:07:48;;;;;;;5.70;3.90;;;27.40;43.10;;;;;;5053481;28;20517;-43
2022/08/28 12:10:24;;;;;;;6.30;3.90;;;27.50;41.60;;;;;;5053634;28;20794;-44
2022/08/28 12:13:02;;;;;;;6.93;4.60;;;27.60;42.10;;;;;;5053560;28;20910;-43
2022/08/28 12:15:27;;;;;;;8.43;3.77;;;27.60;39.90;;;;;;5053849;28;20439;-43
2022/08/28 12:17:55;;;;;;;8.03;3.50;;;27.60;40.00;;;;;;5053884;28;20408;-44
2022/08/28 12:20:33;;;;;;;5.90;3.70;;;27.60;39.50;;;;;;5054253;28;20272;-43
2022/08/28 12:23:02;;;;;;;11.37;3.37;;;27.60;39.10;;;;;;5053358;28;20453;-44
2022/08/28 12:25:38;;;;;;;20.57;3.80;;;27.60;38.20;;;;;;5053581;28;20748;-42
2022/08/28 12:28:21;;;;;;;6.50;3.47;;;27.60;39.10;;;;;;5053385;28;20446;-44
2022/08/28 12:31:03;;;;;;;10.77;3.67;;;27.60;40.00;;;;;;5053355;28;20431;-44
2022/08/28 12:33:36;;;;;;;4.33;3.23;;;27.60;40.40;;;;;;5053477;28;20396;-45
2022/08/28 12:36:04;;;;;;;7.00;3.50;;;27.60;40.90;;;;;;5052938;28;20447;-43
2022/08/28 12:38:32;;;;;;;6.90;3.57;;;27.80;40.30;;;;;;5053176;28;20455;-44
2022/08/28 12:40:58;;;;;;;11.57;4.17;;;27.80;39.10;;;;;;5053070;28;20432;-44
2022/08/28 12:43:29;;;;;;;11.73;3.30;;;27.80;39.50;;;;;;5053169;28;20404;-45
2022/08/28 12:46:05;;;;;;;8.23;4.10;;;27.80;39.80;;;;;;5052799;28;20414;-43
2022/08/28 12:48:50;;;;;;;18.17;5.00;;;27.90;39.70;;;;;;5053381;28;20471;-43
2022/08/28 12:51:23;;;;;;;9.03;3.83;;;27.90;39.60;;;;;;5052773;28;20923;-44
2022/08/28 12:54:01;;;;;;;11.17;4.30;;;27.80;39.70;;;;;;5052857;28;20408;-44
2022/08/28 12:56:28;;;;;;;6.23;3.57;;;27.80;39.60;;;;;;5052795;28;20396;-44
2022/08/28 12:58:55;;;;;;;8.43;4.53;;;27.60;39.10;;;;;;5052673;28;20461;-44
2022/08/28 13:01:29;;;;;;;12.07;4.50;;;27.60;40.20;;;;;;5052673;28;20843;-45
2022/08/28 13:03:58;;;;;;;5.27;3.30;;;27.60;39.80;;;;;;5052769;28;20444;-44
2022/08/28 13:06:28;;;;;;;8.77;3.80;;;27.50;39.10;;;;;;5052484;28;20399;-44